Terminal Aerodrome Forecast
Issued by NWS Wichita, KS

Home | Current Version | Previous Version | Graphics & Text | Print | Product List | Glossary Off
Versions: 1 2 3 4 5 6 7 8 9 10 11 12 13 14 15

495
FTUS43 KICT 111728 AAC
TAFICT
TAF AMD
KICT 111728Z 1117/1218 05006KT P6SM SKC
     FM112000 12004KT P6SM SKC
     FM120000 17004KT P6SM SKC
     FM120800 27006KT P6SM SCT250
     FM121100 35012KT P6SM SCT250=

USA.gov is the U.S. government's official web portal to all federal, state and local government web resources and services.